createdAt,value
2018-12-03T00:01:18.942Z,81.47
2018-12-03T00:03:53.740Z,82.80
2018-12-03T00:06:24.544Z,84.04
2018-12-03T00:08:56.014Z,84.77
2018-12-03T00:11:26.667Z,85.13
2018-12-03T00:13:58.069Z,85.22
2018-12-03T00:16:32.018Z,85.85
2018-12-03T00:19:02.733Z,85.04
2018-12-03T00:21:34.273Z,84.71
2018-12-03T00:24:06.358Z,84.48
2018-12-03T00:26:37.665Z,84.55
2018-12-03T00:29:08.568Z,83.28
2018-12-03T00:31:39.663Z,82.27
2018-12-03T00:34:11.667Z,83.70
2018-12-03T00:36:42.362Z,83.72
2018-12-03T00:39:13.228Z,85.12
2018-12-03T00:41:44.663Z,84.33
2018-12-03T00:44:16.468Z,85.06
2018-12-03T00:46:47.247Z,84.62
2018-12-03T00:49:18.859Z,84.50
2018-12-03T00:51:49.672Z,85.11
2018-12-03T00:54:22.080Z,85.20
2018-12-03T00:56:52.695Z,85.21
2018-12-03T00:59:23.451Z,85.47
2018-12-03T01:01:55.382Z,86.39
2018-12-03T01:04:26.105Z,85.46
2018-12-03T01:06:57.206Z,81.41
2018-12-03T01:09:28.935Z,81.07
2018-12-03T01:11:59.942Z,80.16
2018-12-03T01:14:30.953Z,80.32
2018-12-03T01:17:02.702Z,80.77
2018-12-03T01:19:33.507Z,80.43
2018-12-03T01:22:04.151Z,79.32
2018-12-03T01:24:34.704Z,77.49
2018-12-03T01:27:06.143Z,77.01
2018-12-03T01:29:37.000Z,78.79
2018-12-03T01:32:08.639Z,78.24
2018-12-03T01:34:39.478Z,80.31
2018-12-03T01:37:11.223Z,79.76
2018-12-03T01:39:45.508Z,81.12
2018-12-03T01:42:16.679Z,83.21
2018-12-03T01:44:47.264Z,83.12
2018-12-03T01:47:18.094Z,82.35
2018-12-03T01:49:49.685Z,83.34
2018-12-03T01:52:20.239Z,84.12
2018-12-03T01:54:54.301Z,83.14
2018-12-03T01:57:24.860Z,82.45
2018-12-03T01:59:55.797Z,82.11
2018-12-03T02:02:26.476Z,84.17
2018-12-03T02:04:57.921Z,84.58
2018-12-03T02:07:28.907Z,84.74
2018-12-03T02:09:59.460Z,83.63
2018-12-03T02:12:31.381Z,80.92
2018-12-03T02:15:01.942Z,80.47
2018-12-03T02:17:34.535Z,80.98
2018-12-03T02:20:08.223Z,80.81
2018-12-03T02:22:38.719Z,81.11
2018-12-03T02:25:10.110Z,80.22
2018-12-03T02:27:43.560Z,80.68
2018-12-03T02:30:23.017Z,79.90
2018-12-03T02:32:56.801Z,81.84
2018-12-03T02:35:32.451Z,83.34
2018-12-03T02:38:05.452Z,83.54
2018-12-03T02:40:36.535Z,81.54
2018-12-03T02:43:09.531Z,82.40
2018-12-03T02:45:41.441Z,81.73
2018-12-03T02:48:15.195Z,79.10
2018-12-03T02:50:47.570Z,78.48
2018-12-03T02:53:20.139Z,80.54
2018-12-03T02:55:51.720Z,79.09
2018-12-03T02:58:22.523Z,80.16
2018-12-03T03:00:55.516Z,79.96
2018-12-03T03:03:26.105Z,82.03
2018-12-03T03:06:02.407Z,82.38
2018-12-03T03:08:35.543Z,82.60
2018-12-03T03:11:07.143Z,82.79
2018-12-03T03:13:38.004Z,82.47
2018-12-03T03:16:08.567Z,83.14
2018-12-03T03:18:39.244Z,84.36
2018-12-03T03:21:09.805Z,84.44
2018-12-03T03:23:40.585Z,84.32
2018-12-03T03:26:11.474Z,82.87
2018-12-03T03:28:41.923Z,81.21
2018-12-03T03:31:12.689Z,81.90
2018-12-03T03:33:43.621Z,81.98
2018-12-03T03:36:14.272Z,80.85
2018-12-03T03:38:44.780Z,82.23
2018-12-03T03:41:15.692Z,82.04
2018-12-03T03:43:45.994Z,82.37
2018-12-03T03:46:16.863Z,81.33
2018-12-03T03:48:47.411Z,81.64
2018-12-03T03:51:18.263Z,82.25
2018-12-03T03:53:49.129Z,82.04
2018-12-03T03:56:22.081Z,82.65
2018-12-03T03:58:52.795Z,83.46
2018-12-03T04:01:26.036Z,83.45
2018-12-03T04:03:57.089Z,83.32
2018-12-03T04:06:29.623Z,82.79
2018-12-03T04:09:00.770Z,83.33
2018-12-03T04:11:32.899Z,83.55
2018-12-03T04:14:06.220Z,84.11
2018-12-03T04:16:38.697Z,84.45
2018-12-03T04:19:09.759Z,85.77
2018-12-03T04:21:40.350Z,85.54
2018-12-03T04:24:11.392Z,85.57
2018-12-03T04:26:44.740Z,85.02
2018-12-03T04:29:21.612Z,84.32
2018-12-03T04:31:55.259Z,85.50
2018-12-03T04:34:26.126Z,86.73
2018-12-03T04:36:56.810Z,86.08
2018-12-03T04:39:30.310Z,87.43
2018-12-03T04:42:01.079Z,86.79
2018-12-03T04:44:31.781Z,87.99
2018-12-03T04:47:02.843Z,86.64
2018-12-03T04:49:33.400Z,86.84
2018-12-03T04:52:04.006Z,87.20
2018-12-03T04:54:34.553Z,86.17
2018-12-03T04:57:07.986Z,87.14
2018-12-03T04:59:41.113Z,86.65
2018-12-03T05:02:12.367Z,86.88
2018-12-03T05:04:43.240Z,86.60
2018-12-03T05:07:15.826Z,86.95
2018-12-03T05:09:46.951Z,87.81
2018-12-03T05:12:21.150Z,88.51
2018-12-03T05:14:53.839Z,88.35
2018-12-03T05:17:24.645Z,89.89
2018-12-03T05:19:55.356Z,89.65
2018-12-03T05:22:25.957Z,88.42
2018-12-03T05:24:56.750Z,88.24
2018-12-03T05:27:29.967Z,89.04
2018-12-03T05:30:03.686Z,88.54
2018-12-03T05:32:38.139Z,88.25
2018-12-03T05:35:16.776Z,89.04
2018-12-03T05:37:54.049Z,88.71
2018-12-03T05:40:33.102Z,88.96
2018-12-03T05:43:05.569Z,88.64
2018-12-03T05:45:38.307Z,88.26
2018-12-03T05:48:11.284Z,88.25
2018-12-03T05:50:42.396Z,88.46
2018-12-03T05:53:13.280Z,90.01
2018-12-03T05:55:44.802Z,90.89
2018-12-03T05:58:15.820Z,90.40
2018-12-03T06:00:48.360Z,90.42
2018-12-03T06:03:19.255Z,89.66
2018-12-03T06:05:58.339Z,89.19
2018-12-03T06:08:29.326Z,89.10
2018-12-03T06:11:02.459Z,89.84
2018-12-03T06:13:35.477Z,87.39
2018-12-03T06:16:06.484Z,87.35
2018-12-03T06:18:40.808Z,87.93
2018-12-03T06:21:11.366Z,87.71
2018-12-03T06:23:41.923Z,87.08
2018-12-03T06:26:12.955Z,87.30
2018-12-03T06:28:48.259Z,87.14
2018-12-03T06:31:19.452Z,88.40
2018-12-03T06:33:50.619Z,91.38
2018-12-03T06:36:24.304Z,91.15
2018-12-03T06:38:57.494Z,92.23
2018-12-03T06:41:29.572Z,90.64
2018-12-03T06:44:01.791Z,90.07
2018-12-03T06:46:32.162Z,87.95
2018-12-03T06:49:03.024Z,87.69
2018-12-03T06:51:33.995Z,87.71
2018-12-03T06:54:04.421Z,87.59
2018-12-03T06:56:34.930Z,85.19
2018-12-03T06:59:06.207Z,87.30
2018-12-03T07:01:36.882Z,87.12
2018-12-03T07:04:07.878Z,89.81
2018-12-03T07:06:38.396Z,89.43
2018-12-03T07:09:11.700Z,88.35
2018-12-03T07:11:42.342Z,87.81
2018-12-03T07:14:16.750Z,87.27
2018-12-03T07:16:49.624Z,87.00
2018-12-03T07:19:20.725Z,86.25
2018-12-03T07:21:53.859Z,84.16
2018-12-03T07:24:24.860Z,85.59
2018-12-03T07:26:57.591Z,85.01
2018-12-03T07:29:29.008Z,85.87
2018-12-03T07:31:59.812Z,86.00
2018-12-03T07:34:38.502Z,86.34
2018-12-03T07:37:10.495Z,86.03
2018-12-03T07:39:42.824Z,84.96
2018-12-03T07:42:13.466Z,84.48
2018-12-03T07:44:44.906Z,84.26
2018-12-03T07:47:16.856Z,83.95
2018-12-03T07:49:48.912Z,82.30
2018-12-03T07:52:19.291Z,82.72
2018-12-03T07:54:50.417Z,81.20
2018-12-03T07:57:21.318Z,82.40
2018-12-03T07:59:51.979Z,81.54
2018-12-03T08:02:22.645Z,81.75
2018-12-03T08:04:52.931Z,81.53
2018-12-03T08:07:23.806Z,81.15
2018-12-03T08:09:54.675Z,80.76
2018-12-03T08:12:25.503Z,81.01
2018-12-03T08:14:56.339Z,80.73
2018-12-03T08:17:27.216Z,78.69
2018-12-03T08:19:57.870Z,78.76
2018-12-03T08:22:28.538Z,81.61
2018-12-03T08:25:01.707Z,82.82
2018-12-03T08:27:35.897Z,82.46
2018-12-03T08:30:11.763Z,83.56
2018-12-03T08:32:44.958Z,83.51
2018-12-03T08:35:17.448Z,83.20
2018-12-03T08:37:49.081Z,82.78
2018-12-03T08:40:20.646Z,83.13
2018-12-03T08:42:59.950Z,83.18
2018-12-03T08:45:32.940Z,82.59
2018-12-03T08:48:03.707Z,82.85
2018-12-03T08:50:42.792Z,83.73
2018-12-03T08:53:14.129Z,83.63
2018-12-03T08:55:48.974Z,85.14
2018-12-03T08:58:21.571Z,85.65
2018-12-03T09:00:52.412Z,85.09
2018-12-03T09:03:25.452Z,85.26
2018-12-03T09:05:57.507Z,86.82
2018-12-03T09:08:30.222Z,85.60
2018-12-03T09:11:02.252Z,85.84
2018-12-03T09:13:33.212Z,86.36
2018-12-03T09:16:05.455Z,85.89
2018-12-03T09:18:39.976Z,84.75
2018-12-03T09:21:16.407Z,84.75
2018-12-03T09:23:51.191Z,83.57
2018-12-03T09:26:22.955Z,83.76
2018-12-03T09:28:54.237Z,84.97
2018-12-03T09:31:26.735Z,84.89
2018-12-03T09:33:59.580Z,85.80
2018-12-03T09:36:30.571Z,86.93
2018-12-03T09:39:12.188Z,88.29
2018-12-03T09:41:45.443Z,89.51
2018-12-03T09:44:18.102Z,89.05
2018-12-03T09:46:48.985Z,89.15
2018-12-03T09:49:19.764Z,90.42
2018-12-03T09:51:55.586Z,88.95
2018-12-03T09:54:26.933Z,87.74
2018-12-03T09:56:57.282Z,88.41
2018-12-03T09:59:30.649Z,88.43
2018-12-03T10:02:02.843Z,87.86
2018-12-03T10:04:39.595Z,85.55
2018-12-03T10:07:18.748Z,85.25
2018-12-03T10:09:50.651Z,85.99
2018-12-03T10:12:21.914Z,86.59
2018-12-03T10:14:55.132Z,86.62
2018-12-03T10:17:26.049Z,88.86
2018-12-03T10:19:56.600Z,88.35
2018-12-03T10:22:27.587Z,87.41
2018-12-03T10:25:00.625Z,86.87
2018-12-03T10:27:31.880Z,88.62
2018-12-03T10:30:02.982Z,88.18
2018-12-03T10:32:38.838Z,86.16
2018-12-03T10:35:13.062Z,85.80
2018-12-03T10:37:46.595Z,85.99
2018-12-03T10:40:19.311Z,85.50
2018-12-03T10:42:50.773Z,84.59
2018-12-03T10:45:26.127Z,84.28
2018-12-03T10:47:57.164Z,85.43
2018-12-03T10:50:30.674Z,87.54
2018-12-03T10:53:02.950Z,87.43
2018-12-03T10:55:33.761Z,87.74
2018-12-03T10:58:06.997Z,87.67
2018-12-03T11:00:45.223Z,89.09
2018-12-03T11:03:27.905Z,89.74
2018-12-03T11:06:08.831Z,87.62
2018-12-03T11:08:41.803Z,85.95
2018-12-03T11:11:16.333Z,84.49
2018-12-03T11:13:52.049Z,82.68
2018-12-03T11:16:31.493Z,85.92
2018-12-03T11:19:11.232Z,83.61
2018-12-03T11:21:44.859Z,84.75
2018-12-03T11:24:17.840Z,83.18
2018-12-03T11:26:51.177Z,82.38
2018-12-03T11:29:23.160Z,81.99
2018-12-03T11:31:56.963Z,82.77
2018-12-03T11:34:27.667Z,80.11
2018-12-03T11:37:01.778Z,82.68
2018-12-03T11:39:58.678Z,82.75
2018-12-03T11:42:33.116Z,84.18
2018-12-03T11:45:08.071Z,83.43
2018-12-03T11:47:39.905Z,82.14
2018-12-03T11:50:12.471Z,82.40
2018-12-03T11:52:49.614Z,83.13
2018-12-03T11:55:20.853Z,79.82
2018-12-03T11:57:52.139Z,82.10
2018-12-03T12:00:29.260Z,83.54
2018-12-03T12:03:01.971Z,82.54
2018-12-03T12:05:33.715Z,81.70
2018-12-03T12:08:09.306Z,81.56
2018-12-03T12:10:39.865Z,82.83
2018-12-03T12:13:13.002Z,81.51
2018-12-03T12:15:45.990Z,79.41
2018-12-03T12:18:17.059Z,80.78
2018-12-03T12:20:55.415Z,81.75
2018-12-03T12:23:26.668Z,82.57
2018-12-03T12:25:57.981Z,80.50
2018-12-03T12:28:28.620Z,79.95
2018-12-03T12:30:58.879Z,78.85
2018-12-03T12:33:30.217Z,78.63
2018-12-03T12:36:00.872Z,79.59
2018-12-03T12:38:31.528Z,79.64
2018-12-03T12:41:02.094Z,82.84
2018-12-03T12:43:32.343Z,85.52
2018-12-03T12:46:09.658Z,84.17
2018-12-03T12:48:40.199Z,81.89
2018-12-03T12:51:13.769Z,79.02
2018-12-03T12:53:50.607Z,78.95
2018-12-03T12:56:24.047Z,79.76
2018-12-03T12:58:58.944Z,83.42
2018-12-03T13:01:30.887Z,88.05
2018-12-03T13:04:02.416Z,87.85
2018-12-03T13:06:33.287Z,87.58
2018-12-03T13:09:09.744Z,86.05
2018-12-03T13:11:41.456Z,83.83
2018-12-03T13:14:14.757Z,85.68
2018-12-03T13:16:47.839Z,88.32
2018-12-03T13:19:21.409Z,88.33
2018-12-03T13:21:52.972Z,88.49
2018-12-03T13:24:25.097Z,88.18
2018-12-03T13:26:56.189Z,86.52
2018-12-03T13:29:27.340Z,88.81
2018-12-03T13:32:01.083Z,85.70
2018-12-03T13:34:38.395Z,85.79
2018-12-03T13:37:14.366Z,84.85
2018-12-03T13:39:47.223Z,84.04
2018-12-03T13:42:18.510Z,82.76
2018-12-03T13:44:51.122Z,82.58
2018-12-03T13:47:25.334Z,81.87
2018-12-03T13:49:58.242Z,81.52
2018-12-03T13:52:34.749Z,80.47
2018-12-03T13:55:08.762Z,80.84
2018-12-03T13:57:39.842Z,80.66
2018-12-03T14:00:26.809Z,80.36
2018-12-03T14:03:09.359Z,78.15
2018-12-03T14:05:48.692Z,76.14
2018-12-03T14:10:05.117Z,77.75
2018-12-03T14:12:45.108Z,81.06
2018-12-03T14:15:34.299Z,80.57
2018-12-03T14:18:20.765Z,80.61
2018-12-03T14:20:53.955Z,80.95
2018-12-03T14:23:30.588Z,79.27
2018-12-03T14:26:02.617Z,81.81
2018-12-03T14:28:35.519Z,83.43
2018-12-03T14:31:07.279Z,83.75
2018-12-03T14:33:37.607Z,85.61
2018-12-03T14:36:13.965Z,88.16
2018-12-03T14:38:44.453Z,87.88
2018-12-03T14:41:17.625Z,87.21
2018-12-03T14:43:48.895Z,85.64
2018-12-03T14:46:22.938Z,82.80
2018-12-03T14:48:55.795Z,87.02
2018-12-03T14:51:27.287Z,86.80
2018-12-03T14:54:02.795Z,86.03
2018-12-03T14:56:33.768Z,85.61
2018-12-03T14:59:06.312Z,83.70
2018-12-03T15:01:38.318Z,82.38
2018-12-03T15:04:12.254Z,81.36
2018-12-03T15:06:48.781Z,81.09
2018-12-03T15:09:21.983Z,81.27
2018-12-03T15:11:55.650Z,79.97
2018-12-03T15:14:26.519Z,80.55
2018-12-03T15:16:57.497Z,82.74
2018-12-03T15:19:28.317Z,82.53
2018-12-03T15:21:58.872Z,83.05
2018-12-03T15:24:29.355Z,84.15
2018-12-03T15:27:00.199Z,85.99
2018-12-03T15:29:31.355Z,84.57
2018-12-03T15:32:04.670Z,81.96
2018-12-03T15:34:38.867Z,82.34
2018-12-03T15:37:12.455Z,83.04
2018-12-03T15:39:44.882Z,82.27
2018-12-03T15:42:17.511Z,83.41
2018-12-03T15:44:53.280Z,83.69
2018-12-03T15:47:25.660Z,82.93
2018-12-03T15:50:06.646Z,83.04
2018-12-03T15:52:38.963Z,83.79
2018-12-03T15:55:14.459Z,80.76
2018-12-03T15:57:57.806Z,82.08
2018-12-03T16:00:31.769Z,80.64
2018-12-03T16:03:04.929Z,81.54
2018-12-03T16:05:37.020Z,82.64
2018-12-03T16:08:09.800Z,80.65
2018-12-03T16:10:40.536Z,81.35
2018-12-03T16:13:14.246Z,79.75
2018-12-03T16:15:46.301Z,82.79
2018-12-03T16:18:18.082Z,84.57
2018-12-03T16:20:49.232Z,84.46
2018-12-03T16:23:20.215Z,86.50
2018-12-03T16:25:53.610Z,85.22
2018-12-03T16:28:27.329Z,84.35
2018-12-03T16:30:58.412Z,82.49
2018-12-03T16:33:31.744Z,83.56
2018-12-03T16:36:02.862Z,82.55
2018-12-03T16:38:35.840Z,84.08
2018-12-03T16:41:12.155Z,83.23
2018-12-03T16:43:42.962Z,85.31
2018-12-03T16:49:18.555Z,87.59
2018-12-03T16:51:50.958Z,87.67
2018-12-03T16:54:21.888Z,88.05
2018-12-03T16:56:55.349Z,89.48
2018-12-03T16:59:27.519Z,89.50
2018-12-03T17:02:03.130Z,90.85
2018-12-03T17:04:36.906Z,90.31
2018-12-03T17:07:15.684Z,89.70
2018-12-03T17:09:48.399Z,91.95
2018-12-03T17:12:23.924Z,93.52
2018-12-03T17:14:55.845Z,93.07
2018-12-03T17:17:27.759Z,91.09
2018-12-03T17:20:00.499Z,89.95
2018-12-03T17:22:45.171Z,90.91
2018-12-03T17:25:26.006Z,91.54
2018-12-03T17:28:02.233Z,90.72
2018-12-03T17:30:35.533Z,90.86
2018-12-03T17:33:06.643Z,89.27
2018-12-03T17:35:38.379Z,90.08
2018-12-03T17:38:11.830Z,90.11
2018-12-03T17:40:47.129Z,90.87
2018-12-03T17:43:24.559Z,91.35
2018-12-03T17:45:55.800Z,90.56
2018-12-03T17:48:27.449Z,90.39
2018-12-03T17:51:03.159Z,89.11
2018-12-03T17:53:37.387Z,91.50
2018-12-03T17:56:13.657Z,93.47
2018-12-03T17:58:46.845Z,92.31
2018-12-03T18:01:19.591Z,91.87
2018-12-03T18:03:51.312Z,91.91
2018-12-03T18:06:23.757Z,91.97
2018-12-03T18:08:54.621Z,92.07
2018-12-03T18:11:27.638Z,90.03
2018-12-03T18:13:59.132Z,88.01
2018-12-03T18:16:39.491Z,90.03
2018-12-03T18:19:12.135Z,89.01
2018-12-03T18:21:45.176Z,86.32
2018-12-03T18:24:24.597Z,86.04
2018-12-03T18:26:57.710Z,85.80
2018-12-03T18:29:28.416Z,84.17
2018-12-03T18:31:59.077Z,84.95
2018-12-03T18:34:29.788Z,86.34
2018-12-03T18:37:03.783Z,87.76
2018-12-03T18:39:36.954Z,89.71
2018-12-03T18:42:10.531Z,90.52
2018-12-03T18:44:44.017Z,90.97
2018-12-03T18:47:16.085Z,92.43
2018-12-03T18:49:49.857Z,92.63
2018-12-03T18:52:23.134Z,93.53
2018-12-03T18:54:55.009Z,95.14
2018-12-03T18:57:26.167Z,96.37
2018-12-03T18:59:58.902Z,95.74
2018-12-03T19:02:31.734Z,95.09
2018-12-03T19:05:05.418Z,94.56
2018-12-03T19:07:43.223Z,94.36
2018-12-03T19:10:26.201Z,94.09
2018-12-03T19:12:57.119Z,95.19
2018-12-03T19:15:34.502Z,95.40
2018-12-03T19:18:07.170Z,96.23
2018-12-03T19:20:46.701Z,97.42
2018-12-03T19:23:20.729Z,96.39
2018-12-03T19:25:58.970Z,94.27
2018-12-03T19:28:30.950Z,94.27
2018-12-03T19:31:05.107Z,94.01
2018-12-03T19:34:13.252Z,93.05
2018-12-03T19:36:44.819Z,92.95
2018-12-03T19:39:15.667Z,95.83
2018-12-03T19:41:52.482Z,96.35
2018-12-03T19:44:25.639Z,95.18
2018-12-03T19:47:01.895Z,94.99
2018-12-03T19:49:32.669Z,96.10
2018-12-03T19:52:04.122Z,94.28
2018-12-03T19:54:36.347Z,90.91
2018-12-03T19:57:10.087Z,87.65
2018-12-03T19:59:48.088Z,85.60
2018-12-03T20:02:20.583Z,85.52
2018-12-03T20:04:54.836Z,84.43
2018-12-03T20:07:27.718Z,85.10
2018-12-03T20:10:01.193Z,87.12
2018-12-03T20:12:34.167Z,88.73
2018-12-03T20:15:07.222Z,90.52
2018-12-03T20:17:41.152Z,91.36
2018-12-03T20:20:18.157Z,94.43
2018-12-03T20:22:57.796Z,95.47
2018-12-03T20:25:40.322Z,94.35
2018-12-03T20:28:16.023Z,91.86
2018-12-03T20:31:12.299Z,87.56
2018-12-03T20:34:01.643Z,84.19
2018-12-03T20:39:05.313Z,83.31
2018-12-03T20:41:44.798Z,90.57
2018-12-03T20:44:31.526Z,87.98
2018-12-03T20:47:26.782Z,89.89
2018-12-03T20:51:06.628Z,90.43
2018-12-03T20:53:46.496Z,85.56
2018-12-03T20:56:19.483Z,83.96
2018-12-03T20:58:50.304Z,83.77
2018-12-03T21:01:21.043Z,85.73
2018-12-03T21:03:55.756Z,84.24
2018-12-03T21:06:27.359Z,81.41
2018-12-03T21:09:00.054Z,81.28
2018-12-03T21:11:31.379Z,80.79
2018-12-03T21:14:06.300Z,79.47
2018-12-03T21:16:38.277Z,80.76
2018-12-03T21:19:18.369Z,81.62
2018-12-03T21:21:54.964Z,80.99
2018-12-03T21:24:26.205Z,81.40
2018-12-03T21:26:56.776Z,81.86
2018-12-03T21:29:27.895Z,82.12
2018-12-03T21:32:06.642Z,81.36
2018-12-03T21:34:37.568Z,80.26
2018-12-03T21:37:08.988Z,80.60
2018-12-03T21:39:48.045Z,80.01
2018-12-03T21:42:15.978Z,84.04
2018-12-03T21:44:46.899Z,83.52
2018-12-03T21:47:18.456Z,84.54
2018-12-03T21:49:50.436Z,85.10
2018-12-03T21:52:27.658Z,86.32
2018-12-03T21:55:00.872Z,85.91
2018-12-03T21:57:31.279Z,84.81
2018-12-03T22:00:06.628Z,84.37
2018-12-03T22:02:38.316Z,83.94
2018-12-03T22:05:11.647Z,82.32
2018-12-03T22:07:59.818Z,81.34
2018-12-03T22:10:31.570Z,79.46
2018-12-03T22:13:03.871Z,79.65
2018-12-03T22:15:37.340Z,78.66
2018-12-03T22:18:08.103Z,78.38
2018-12-03T22:20:38.703Z,80.89
2018-12-03T22:23:09.299Z,82.73
2018-12-03T22:25:39.949Z,79.93
2018-12-03T22:28:16.481Z,78.21
2018-12-03T22:30:50.271Z,79.57
2018-12-03T22:33:23.972Z,78.56
2018-12-03T22:35:56.780Z,77.34
2018-12-03T22:38:28.931Z,77.55
2018-12-03T22:41:01.880Z,76.48
2018-12-03T22:43:34.889Z,75.87
2018-12-03T22:46:09.786Z,75.21
2018-12-03T22:48:43.051Z,74.98
2018-12-03T22:51:17.078Z,74.39
2018-12-03T22:53:49.927Z,74.54
2018-12-03T22:56:21.262Z,73.87
2018-12-03T22:58:54.068Z,74.41
2018-12-03T23:01:26.836Z,74.62
2018-12-03T23:04:00.646Z,74.70
2018-12-03T23:06:34.072Z,74.21
2018-12-03T23:09:09.586Z,78.66
2018-12-03T23:11:48.895Z,81.26
2018-12-03T23:14:21.833Z,80.57
2018-12-03T23:16:53.567Z,78.51
2018-12-03T23:19:26.311Z,77.52
2018-12-03T23:21:58.322Z,76.98
2018-12-03T23:24:32.114Z,76.49
2018-12-03T23:27:05.312Z,75.39
2018-12-03T23:29:38.056Z,73.93
2018-12-03T23:32:11.334Z,74.66
2018-12-03T23:34:42.079Z,76.07
2018-12-03T23:37:13.899Z,75.09
2018-12-03T23:39:46.856Z,74.08
2018-12-03T23:42:19.404Z,75.38
2018-12-03T23:44:50.952Z,75.77
2018-12-03T23:47:25.444Z,75.23
2018-12-03T23:49:57.515Z,74.16
2018-12-03T23:52:28.250Z,74.09
2018-12-03T23:54:59.558Z,74.49
2018-12-03T23:57:31.369Z,75.74
